Weather History for Provincetown, MA

Change the Weather History Date:

Thursday, December 19, 2013

  Actual Average Record
Temperature  
Mean Temperature 39 °F -  
Max Temperature 46 °F 41 °F 58 °F (1954)
Min Temperature 32 °F 30 °F 17 °F (1951)
Degree Days  
Heating Degree Days 26    
Moisture  
Dew Point 26 °F    
Average Humidity 62    
Maximum Humidity 75    
Minimum Humidity 53    
Precipitation  
Precipitation 0.17 in - - ()
Sea Level Pressure  
Sea Level Pressure 30.07 in    
Wind  
Wind Speed 17 mph (WSW)    
Max Wind Speed 23 mph    
Max Gust Speed 31 mph    
Visibility 10 miles    
Events      
Averages and records for this station are not official NWS values.
T = Trace of Precipitation, MM = Missing Value Source: NWS Daily Summary

Daily Weather History Graph

Daily Weather History Graph

Search for Another Location

Airport:

Trip Planner

Search our weather history database for the weather conditions in past years. The results will help you decide how hot, cold, wet, or windy it might be!

Date:

Astronomy

Dec. 19, 2013 Rise Set
Actual Time 7:04 AM EST 4:11 PM EST
Civil Twilight 6:33 AM EST 4:43 PM EST
Nautical Twilight 5:57 AM EST 5:18 PM EST
Astronomical Twilight 5:23 AM EST 5:52 PM EST
Moon 6:36 PM EST (12/19) 8:19 AM EST (12/19)
Length of Visible Light 10h 10m
Length of Day
9h 06m
Waning Gibbous, 95% of the Moon is Illuminated
Dec 19
Waning Gibbous
Dec 25
Last Quarter
Jan 1
New
Jan 7
First Quarter
Jan 15
Full

Hourly Weather History & Observations

Time (EST) Temp. Windchill Dew Point Humidity Pressure Visibility Wind Dir Wind Speed Gust Speed Precip Events Conditions
12:15 AM 32.0 °F 20.1 °F 21.2 °F 64% 30.09 in 10.0 mi West 19.6 mph 27.6 mph N/A   Clear
12:35 AM 32.0 °F 20.8 °F 21.2 °F 64% 30.09 in 10.0 mi West 17.3 mph 26.5 mph N/A   Clear
12:55 AM 32.0 °F 20.1 °F 21.2 °F 64% 30.08 in 10.0 mi West 19.6 mph 27.6 mph N/A   Clear
1:15 AM 32.0 °F 20.5 °F 23.0 °F 69% 30.08 in 10.0 mi West 18.4 mph 25.3 mph N/A   Clear
1:35 AM 32.0 °F 20.1 °F 24.8 °F 75% 30.08 in 10.0 mi West 19.6 mph 28.8 mph N/A   Clear
1:55 AM 33.8 °F 22.5 °F 23.0 °F 65% 30.09 in 10.0 mi West 19.6 mph 28.8 mph N/A   Clear
2:15 AM 33.8 °F 22.5 °F 21.2 °F 60% 30.10 in 10.0 mi West 19.6 mph 26.5 mph N/A   Clear
2:35 AM 33.8 °F 22.5 °F 21.2 °F 60% 30.11 in 10.0 mi West 19.6 mph 28.8 mph N/A   Clear
2:55 AM 33.8 °F 21.9 °F 23.0 °F 65% 30.11 in 10.0 mi West 21.9 mph 29.9 mph N/A   Clear
3:15 AM 33.8 °F 21.6 °F 21.2 °F 60% 30.11 in 10.0 mi West 23.0 mph 29.9 mph N/A   Clear
3:35 AM 33.8 °F 23.2 °F 21.2 °F 60% 30.10 in 10.0 mi West 17.3 mph 26.5 mph 0.02 in   Clear
3:55 AM 33.8 °F 23.2 °F 21.2 °F 60% 30.10 in 10.0 mi West 17.3 mph 25.3 mph 0.02 in   Clear
4:15 AM 33.8 °F 23.9 °F 21.2 °F 60% 30.09 in 10.0 mi West 15.0 mph 21.9 mph N/A   Partly Cloudy
4:35 AM 33.8 °F 23.5 °F 23.0 °F 65% 30.10 in 10.0 mi West 16.1 mph 23.0 mph N/A   Clear
4:55 AM 33.8 °F 23.2 °F 21.2 °F 60% 30.10 in 10.0 mi West 17.3 mph 23.0 mph N/A   Partly Cloudy
5:15 AM 33.8 °F 22.8 °F 23.0 °F 65% 30.10 in 10.0 mi West 18.4 mph 24.2 mph N/A   Partly Cloudy
5:35 AM 33.8 °F 22.8 °F 21.2 °F 60% 30.10 in 10.0 mi West 18.4 mph 25.3 mph N/A   Mostly Cloudy
5:55 AM 33.8 °F 23.9 °F 21.2 °F 60% 30.10 in 10.0 mi West 15.0 mph 20.7 mph 0.01 in   Overcast
6:15 AM 33.8 °F 24.3 °F 19.4 °F 56% 30.10 in 10.0 mi West 13.8 mph 21.9 mph N/A   Overcast
6:35 AM 33.8 °F 24.8 °F 21.2 °F 60% 30.10 in 10.0 mi WSW 12.7 mph - 0.01 in   Overcast
6:55 AM 33.8 °F 24.8 °F 23.0 °F 65% 30.11 in 10.0 mi WSW 12.7 mph - 0.01 in   Overcast
7:15 AM 33.8 °F 24.8 °F 24.8 °F 70% 30.11 in 10.0 mi WSW 12.7 mph - N/A   Overcast
7:35 AM 33.8 °F 24.8 °F 24.8 °F 70% 30.11 in 10.0 mi SW 12.7 mph - N/A   Overcast
7:55 AM 33.8 °F 24.8 °F 23.0 °F 65% 30.10 in 10.0 mi SW 12.7 mph 21.9 mph N/A   Overcast
8:15 AM 33.8 °F 23.2 °F 21.2 °F 60% 30.10 in 10.0 mi WSW 17.3 mph 21.9 mph N/A   Mostly Cloudy
8:35 AM 33.8 °F 23.5 °F 21.2 °F 60% 30.10 in 10.0 mi SW 16.1 mph 19.6 mph N/A   Mostly Cloudy
8:55 AM 33.8 °F 23.9 °F 21.2 °F 60% 30.10 in 10.0 mi WSW 15.0 mph - 0.01 in   Overcast
9:15 AM 35.6 °F 24.5 °F 23.0 °F 60% 30.10 in 10.0 mi WSW 20.7 mph 25.3 mph 0.01 in   Overcast
9:35 AM 35.6 °F 25.5 °F 24.8 °F 65% 30.11 in 10.0 mi WSW 17.3 mph 27.6 mph 0.02 in   Mostly Cloudy
9:55 AM 37.4 °F 26.6 °F 24.8 °F 60% 30.10 in 10.0 mi WSW 21.9 mph 31.1 mph 0.02 in   Clear
10:15 AM 37.4 °F 26.6 °F 26.6 °F 65% 30.09 in 10.0 mi WSW 21.9 mph 28.8 mph N/A   Mostly Cloudy
10:35 AM 39.2 °F 29.6 °F 24.8 °F 56% 30.08 in 10.0 mi WSW 19.6 mph 28.8 mph N/A   Overcast
10:55 AM 39.2 °F 28.7 °F 24.8 °F 56% 30.07 in 10.0 mi WSW 23.0 mph 27.6 mph N/A   Scattered Clouds
11:15 AM 39.2 °F 29.0 °F 24.8 °F 56% 30.05 in 10.0 mi WSW 21.9 mph 29.9 mph 0.01 in   Clear
11:35 AM 41.0 °F 31.6 °F 24.8 °F 53% 30.04 in 10.0 mi SW 20.7 mph 26.5 mph 0.01 in   Clear
11:55 AM 42.8 °F 34.3 °F 26.6 °F 53% 30.03 in 10.0 mi SW 19.6 mph 28.8 mph 0.01 in   Clear
12:15 PM 42.8 °F 34.0 °F 26.6 °F 53% 30.01 in 10.0 mi SW 20.7 mph 27.6 mph N/A   Clear
12:35 PM 44.6 °F 36.9 °F 28.4 °F 53% 30.01 in 10.0 mi SW 18.4 mph 26.5 mph N/A   Clear
12:55 PM 44.6 °F 36.9 °F 30.2 °F 57% 30.00 in 10.0 mi SW 18.4 mph 26.5 mph N/A   Clear
1:15 PM 44.6 °F 36.6 °F 30.2 °F 57% 29.99 in 10.0 mi SW 19.6 mph 27.6 mph 0.01 in   Clear
1:35 PM 46.4 °F 38.7 °F 30.2 °F 53% 29.99 in 10.0 mi SW 20.7 mph 26.5 mph 0.01 in   Clear
1:55 PM 44.6 °F 37.4 °F 33.8 °F 66% 29.98 in 10.0 mi SW 16.1 mph 20.7 mph 0.02 in   Clear
2:15 PM 46.4 °F 39.8 °F 33.8 °F 62% 29.98 in 10.0 mi SW 16.1 mph - N/A   Clear
2:35 PM 46.4 °F 39.8 °F 33.8 °F 62% 29.98 in 10.0 mi SW 16.1 mph - 0.01 in   Clear
2:55 PM 44.6 °F 37.8 °F 32.0 °F 61% 29.98 in 10.0 mi WSW 15.0 mph 19.6 mph 0.02 in   Clear
3:15 PM 42.8 °F 35.4 °F 30.2 °F 61% 29.98 in 10.0 mi WSW 15.0 mph - N/A   Clear
3:35 PM 42.8 °F 36.2 °F 32.0 °F 66% 29.99 in 10.0 mi WSW 12.7 mph - 0.01 in   Clear
3:55 PM 42.8 °F 36.2 °F 32.0 °F 66% 29.99 in 10.0 mi SW 12.7 mph - 0.01 in   Clear
4:15 PM 41.0 °F 34.7 °F 32.0 °F 70% 30.00 in 10.0 mi WSW 10.4 mph - N/A   Clear
4:35 PM 41.0 °F 34.7 °F 32.0 °F 70% 30.01 in 10.0 mi WSW 10.4 mph - N/A   Clear
4:55 PM 39.2 °F 32.5 °F 32.0 °F 75% 30.01 in 10.0 mi WSW 10.4 mph - N/A   Clear
5:15 PM 41.0 °F 35.2 °F 32.0 °F 70% 30.03 in 10.0 mi WSW 9.2 mph - N/A   Clear
5:35 PM 41.0 °F 34.7 °F 30.2 °F 65% 30.03 in 10.0 mi West 10.4 mph - N/A   Clear
5:55 PM 42.8 °F 37.0 °F 28.4 °F 57% 30.04 in 10.0 mi West 10.4 mph - N/A   Clear
6:15 PM 41.0 °F 35.2 °F 30.2 °F 65% 30.04 in 10.0 mi WSW 9.2 mph - N/A   Clear
6:35 PM 41.0 °F 33.9 °F 28.4 °F 61% 30.06 in 10.0 mi WSW 12.7 mph - 0.01 in   Clear
6:55 PM 41.0 °F 34.3 °F 28.4 °F 61% 30.06 in 10.0 mi West 11.5 mph - 0.01 in   Clear
7:15 PM 42.8 °F 36.2 °F 28.4 °F 57% 30.06 in 10.0 mi West 12.7 mph - N/A   Clear
7:35 PM 42.8 °F 37.0 °F 28.4 °F 57% 30.06 in 10.0 mi West 10.4 mph 18.4 mph 0.01 in   Clear
7:55 PM 42.8 °F 36.2 °F 28.4 °F 57% 30.07 in 10.0 mi West 12.7 mph - 0.01 in   Clear
8:15 PM 42.8 °F 37.0 °F 30.2 °F 61% 30.08 in 10.0 mi West 10.4 mph - 0.01 in   Clear
8:35 PM 42.8 °F 36.2 °F 28.4 °F 57% 30.09 in 10.0 mi WSW 12.7 mph - 0.01 in   Clear
8:55 PM 41.0 °F 35.2 °F 30.2 °F 65% 30.10 in 10.0 mi WSW 9.2 mph - 0.01 in   Clear
9:15 PM 41.0 °F 34.3 °F 30.2 °F 65% 30.11 in 10.0 mi West 11.5 mph - N/A   Clear
9:35 PM 41.0 °F 34.3 °F 28.4 °F 61% 30.12 in 10.0 mi West 11.5 mph - N/A   Clear
9:55 PM 41.0 °F 35.2 °F 28.4 °F 61% 30.12 in 10.0 mi West 9.2 mph - N/A   Clear
10:15 PM 42.8 °F 37.0 °F 28.4 °F 57% 30.12 in 10.0 mi West 10.4 mph - N/A   Clear
10:35 PM 41.0 °F 34.7 °F 30.2 °F 65% 30.12 in 10.0 mi West 10.4 mph - N/A   Clear
10:55 PM 39.2 °F 32.5 °F 30.2 °F 70% 30.13 in 10.0 mi WSW 10.4 mph - N/A   Clear
11:15 PM 39.2 °F 33.0 °F 30.2 °F 70% 30.13 in 10.0 mi WSW 9.2 mph - 0.01 in   Clear
11:35 PM 39.2 °F 33.6 °F 30.2 °F 70% 30.13 in 10.0 mi WSW 8.1 mph - 0.01 in   Clear
11:55 PM 39.2 °F 34.2 °F 30.2 °F 70% 30.13 in 10.0 mi West 6.9 mph - 0.01 in   Clear